Terminal Aerodrome Forecast
Issued by NWS

Home | Current Version | Previous Version | Text Only | Print | Product List | Glossary On
Versions: 1 2 3 4 5 6 7 8 9 10 11 12 13 14
000
FTUS43 KDTX 171700
TAFMBS
TAF
KMBS 171724Z 1718/1818 26009KT P6SM SCT040 SCT250
     FM172200 27008KT P6SM SCT050 BKN250
     FM180200 VRB03KT P6SM FEW050
     FM180900 03006KT 6SM BR OVC008
     FM181300 35007KT P6SM SCT015 BKN030=

USA.gov is the U.S. government's official web portal to all federal, state and local government web resources and services.